Archival Weather

Chicago O'Hare International

Chicago, Illinois (KORD)

Report from: Wednesday, July 19, 2023 10:51 AM CDT
Current time: Thursday, July 18, 2024 10:44 PM CDT

Current weather – Weather history – Daily summaries
Weather forecast

Temperature26.1°C (79.0°F)
Dew point12.2°C (54.0°F)
Winds Calm
Visibility10 mi. (16.1 km)
Clouds Few clouds 5,500 ft. (1,676 m)
Few clouds 15,000 ft. (4,572 m)
Altimeter30.06 in.Hg (1018 mB)
Relative humidity42 %
Density altitude1,344 ft. (409 m)
Sea-level pressure101.7 kPa (1017 mB, 30.04 in.Hg)
Remarks Automated weather observing station with precipitation discriminator
Flight conditions Visual Meteorological Conditions
Raw dataKORD 191551Z 00000KT 10SM FEW055 FEW150 26/12 A3006 RMK AO2 SLP174 T02610122
An error has occurred. This application may no longer respond until reloaded. Reload 🗙